Time;durP1;ratioP1;P1;durP2;ratioP2;P2;SDS_P1;SDS_P2;PMS_P1;PMS_P2;Temp;Humidity;BMP_temperature;BMP_pressure;BME280_temperature;BME280_humidity;BME280_pressure;Samples;Min_cycle;Max_cycle;Signal;HPM_P1;HPM_P2
2023/09/10 00:02:13;;;;;;;9.60;6.57;;;;;;;17.86;100.00;98925.00;4918890;29;20085;-77
2023/09/10 00:04:38;;;;;;;12.50;7.07;;;;;;;17.73;100.00;98899.56;4937413;29;20083;-77
2023/09/10 00:07:04;;;;;;;11.85;7.22;;;;;;;17.80;100.00;98909.59;4936690;29;20028;-77
2023/09/10 00:09:29;;;;;;;9.40;6.55;;;;;;;17.76;100.00;98922.88;4920806;29;20460;-76
2023/09/10 00:11:54;;;;;;;13.32;7.28;;;;;;;17.74;100.00;98923.16;4920907;29;20020;-77
2023/09/10 00:14:19;;;;;;;12.75;6.90;;;;;;;17.90;100.00;98942.59;4920183;29;20399;-77
2023/09/10 00:16:45;;;;;;;11.88;6.50;;;;;;;17.61;100.00;98907.06;4917623;29;20028;-77
2023/09/10 00:19:12;;;;;;;10.75;6.68;;;;;;;17.56;100.00;98911.59;4933550;29;20035;-77
2023/09/10 00:21:38;;;;;;;13.23;7.40;;;;;;;17.40;100.00;98905.84;4920300;29;20031;-77
2023/09/10 00:24:04;;;;;;;15.70;6.57;;;;;;;17.54;100.00;98941.94;4936678;29;20028;-77
2023/09/10 00:26:29;;;;;;;9.80;6.07;;;;;;;17.47;100.00;98933.84;4919999;29;20028;-77
2023/09/10 00:28:54;;;;;;;11.98;6.72;;;;;;;17.53;100.00;98946.56;4919637;29;20028;-77
2023/09/10 00:31:20;;;;;;;12.93;6.40;;;;;;;17.48;100.00;98929.25;4916855;29;20118;-76
2023/09/10 00:33:45;;;;;;;8.18;6.03;;;;;;;17.57;100.00;98937.88;4925488;29;20527;-77
2023/09/10 00:36:11;;;;;;;12.35;6.60;;;;;;;17.44;100.00;98931.63;4919341;29;20027;-77
2023/09/10 00:38:36;;;;;;;18.58;7.65;;;;;;;17.35;100.00;98913.13;4932698;29;20499;-77
2023/09/10 00:41:06;;;;;;;11.93;7.60;;;;;;;17.23;100.00;98900.31;4931605;29;20126;-77
2023/09/10 00:43:31;;;;;;;11.77;6.85;;;;;;;17.35;100.00;98926.81;4919941;29;20031;-77
2023/09/10 00:45:56;;;;;;;9.55;6.60;;;;;;;17.31;100.00;98930.00;4916381;29;20024;-77
2023/09/10 00:48:22;;;;;;;13.70;7.60;;;;;;;17.38;100.00;98935.34;4914074;29;20444;-77
2023/09/10 00:50:47;;;;;;;10.93;7.03;;;;;;;17.27;100.00;98928.03;4935834;29;20027;-77
2023/09/10 00:53:13;;;;;;;16.40;8.07;;;;;;;17.22;100.00;98931.50;4922285;29;20376;-77
2023/09/10 00:55:38;;;;;;;11.05;7.68;;;;;;;17.06;100.00;98913.94;4916201;29;20042;-77
2023/09/10 00:58:03;;;;;;;14.60;8.85;;;;;;;17.17;100.00;98938.75;4917890;29;20031;-77
2023/09/10 01:00:29;;;;;;;16.02;8.60;;;;;;;17.03;100.00;98921.81;4931102;29;20103;-77
2023/09/10 01:02:58;;;;;;;14.02;8.68;;;;;;;17.00;100.00;98916.81;4920914;29;20039;-77
2023/09/10 01:05:24;;;;;;;15.10;7.55;;;;;;;17.16;100.00;98948.88;4934788;29;20416;-78
2023/09/10 01:07:49;;;;;;;13.23;8.57;;;;;;;17.11;100.00;98946.03;4917142;29;20038;-76
2023/09/10 01:10:15;;;;;;;15.05;7.47;;;;;;;16.99;100.00;98926.09;4918678;29;20115;-76
2023/09/10 01:13:09;;;;;;;12.05;6.70;;;;;;;16.98;100.00;98927.19;4938253;28;20043;-77
2023/09/10 01:15:55;;;;;;;13.43;7.18;;;;;;;16.99;100.00;98939.75;4936518;29;20034;-77
2023/09/10 01:18:28;;;;;;;12.18;6.75;;;;;;;17.05;100.00;98953.28;4916425;29;20040;-77
2023/09/10 01:21:03;;;;;;;12.60;6.95;;;;;;;17.07;100.00;98951.13;4929726;29;20036;-77
2023/09/10 01:23:50;;;;;;;11.65;6.07;;;;;;;16.95;100.00;98925.75;4933429;29;20443;-77
2023/09/10 01:26:15;;;;;;;12.23;6.50;;;;;;;17.08;100.00;98932.81;4934029;29;20517;-77
2023/09/10 01:28:40;;;;;;;14.77;6.53;;;;;;;17.09;100.00;98927.13;4916689;29;20059;-77
2023/09/10 01:31:05;;;;;;;14.85;6.75;;;;;;;17.16;100.00;98934.34;4917636;29;20031;-77
2023/09/10 01:33:38;;;;;;;12.38;6.68;;;;;;;17.24;100.00;98943.03;4918159;29;20514;-77
2023/09/10 01:36:10;;;;;;;9.95;6.85;;;;;;;17.25;100.00;98947.41;4918550;29;20496;-77
2023/09/10 01:38:57;;;;;;;14.15;6.97;;;;;;;17.02;100.00;98914.66;4934561;29;20122;-77
2023/09/10 01:41:25;;;;;;;15.85;7.03;;;;;;;16.98;100.00;98918.97;4948115;29;20110;-77
2023/09/10 01:43:51;;;;;;;12.57;7.47;;;;;;;17.14;100.00;98947.47;4938160;29;20028;-77
2023/09/10 01:46:18;;;;;;;12.75;6.95;;;;;;;17.10;100.00;98936.16;4921219;29;20054;-77
2023/09/10 01:48:44;;;;;;;13.60;6.60;;;;;;;17.10;100.00;98938.88;4919075;29;20027;-76
2023/09/10 01:51:09;;;;;;;14.38;7.65;;;;;;;17.06;100.00;98938.56;4910389;29;20028;-77
2023/09/10 01:53:34;;;;;;;13.30;6.40;;;;;;;17.01;100.00;98930.25;4934179;29;20055;-77
2023/09/10 01:56:00;;;;;;;11.18;6.38;;;;;;;16.99;100.00;98931.56;4951841;28;20114;-77
2023/09/10 01:58:25;;;;;;;16.25;7.45;;;;;;;17.10;100.00;98938.88;4917356;29;20028;-77
2023/09/10 02:00:50;;;;;;;10.63;7.43;;;;;;;16.91;100.00;98923.75;4917739;29;20027;-77
2023/09/10 02:03:15;;;;;;;11.77;7.43;;;;;;;16.85;100.00;98931.00;4934113;29;20476;-76
2023/09/10 02:05:42;;;;;;;10.93;6.90;;;;;;;16.91;100.00;98940.16;4933938;29;20035;-76
2023/09/10 02:08:07;;;;;;;10.80;7.95;;;;;;;16.79;100.00;98926.50;4922489;29;20437;-76
2023/09/10 02:10:33;;;;;;;18.10;8.82;;;;;;;16.86;100.00;98958.06;4938725;29;20035;-77
2023/09/10 02:12:58;;;;;;;14.95;8.10;;;;;;;16.74;100.00;98953.66;4935078;29;20038;-77
2023/09/10 02:15:24;;;;;;;19.52;9.52;;;;;;;16.59;100.00;98943.25;4916874;29;20110;-77
2023/09/10 02:17:49;;;;;;;21.60;10.68;;;;;;;16.54;100.00;98945.88;4919607;29;20104;-77
2023/09/10 02:20:15;;;;;;;15.35;9.32;;;;;;;16.43;100.00;98942.91;4934860;29;20036;-77
2023/09/10 02:22:40;;;;;;;17.25;10.13;;;;;;;16.58;100.00;98953.34;4932650;29;20392;-76
2023/09/10 02:25:07;;;;;;;16.23;10.25;;;;;;;16.58;100.00;98963.44;4931480;28;20484;-77
2023/09/10 02:27:33;;;;;;;13.15;8.73;;;;;;;16.58;100.00;98968.88;4934068;29;20127;-76
2023/09/10 02:29:58;;;;;;;13.50;9.52;;;;;;;16.61;100.00;98965.66;4917117;29;20125;-77
2023/09/10 02:32:24;;;;;;;14.80;9.27;;;;;;;16.62;100.00;98956.44;4917533;29;20079;-77
2023/09/10 02:34:53;;;;;;;14.00;9.68;;;;;;;16.49;100.00;98938.38;4934161;29;20024;-76
2023/09/10 02:37:18;;;;;;;15.37;10.20;;;;;;;16.41;100.00;98925.91;4916282;29;20038;-77
2023/09/10 02:39:44;;;;;;;16.33;9.57;;;;;;;16.44;100.00;98941.81;4928546;29;20931;-77
2023/09/10 02:42:09;;;;;;;12.93;9.07;;;;;;;16.38;100.00;98945.50;4929643;29;20392;-76
2023/09/10 02:44:34;;;;;;;18.90;8.70;;;;;;;16.35;100.00;98953.38;4916966;29;20150;-77
2023/09/10 02:47:00;;;;;;;16.90;9.25;;;;;;;16.35;100.00;98937.81;4936736;29;20134;-77
2023/09/10 02:49:25;;;;;;;15.95;9.48;;;;;;;16.44;100.00;98955.47;4944263;29;20027;-77
2023/09/10 02:51:51;;;;;;;15.02;8.20;;;;;;;16.41;100.00;98938.75;4929699;29;20036;-76
2023/09/10 02:54:16;;;;;;;14.75;8.45;;;;;;;16.34;100.00;98938.84;4929636;29;20028;-77
2023/09/10 02:56:41;;;;;;;11.18;7.63;;;;;;;16.29;100.00;98935.19;4932250;29;20031;-77
2023/09/10 02:59:07;;;;;;;11.23;7.22;;;;;;;16.28;100.00;98945.28;4946088;28;20038;-77
2023/09/10 03:01:32;;;;;;;14.73;7.80;;;;;;;16.05;100.00;98907.03;4919594;29;20110;-77
2023/09/10 03:03:57;;;;;;;16.48;7.97;;;;;;;16.27;100.00;98943.63;4917561;29;20027;-77
2023/09/10 03:06:23;;;;;;;13.38;7.07;;;;;;;16.18;100.00;98926.75;4916809;29;20083;-76
2023/09/10 03:08:48;;;;;;;9.98;7.28;;;;;;;16.24;100.00;98938.63;4931293;29;20470;-77
2023/09/10 03:11:14;;;;;;;10.40;7.43;;;;;;;16.29;100.00;98960.56;4934183;29;20134;-76
2023/09/10 03:13:39;;;;;;;9.85;6.85;;;;;;;16.19;100.00;98939.34;4916055;29;20491;-76
2023/09/10 03:16:04;;;;;;;15.75;7.95;;;;;;;16.17;100.00;98940.66;4916444;29;20024;-77
2023/09/10 03:18:29;;;;;;;11.07;7.60;;;;;;;16.10;100.00;98926.28;4930473;29;20032;-76
2023/09/10 03:20:55;;;;;;;15.07;7.20;;;;;;;16.14;100.00;98933.75;4934068;29;20027;-77
2023/09/10 03:23:20;;;;;;;16.15;8.63;;;;;;;16.23;100.00;98942.41;4933682;29;20035;-77
2023/09/10 03:25:46;;;;;;;11.65;8.15;;;;;;;16.26;100.00;98947.41;4916620;29;20035;-76
2023/09/10 03:28:11;;;;;;;13.32;8.27;;;;;;;16.31;100.00;98963.91;4930317;29;20031;-77
2023/09/10 03:30:36;;;;;;;12.30;8.93;;;;;;;16.18;100.00;98953.22;4933196;29;20023;-77
2023/09/10 03:33:02;;;;;;;17.08;9.45;;;;;;;16.12;100.00;98956.91;4939222;29;20035;-77
2023/09/10 03:35:28;;;;;;;14.25;8.25;;;;;;;16.00;100.00;98949.50;4917743;29;20024;-76
2023/09/10 03:37:53;;;;;;;12.95;8.65;;;;;;;16.06;100.00;98963.28;4919055;29;20114;-77
2023/09/10 03:40:18;;;;;;;13.55;7.97;;;;;;;15.88;100.00;98939.66;4940890;29;20035;-77
2023/09/10 03:42:43;;;;;;;10.30;6.90;;;;;;;15.92;100.00;98944.41;4925570;29;20044;-77
2023/09/10 03:45:09;;;;;;;13.77;7.95;;;;;;;15.89;100.00;98944.88;4935630;29;20114;-76
2023/09/10 03:47:39;;;;;;;10.77;7.68;;;;;;;15.82;100.00;98938.69;4936806;29;20043;-76
2023/09/10 03:50:05;;;;;;;13.25;7.55;;;;;;;15.84;100.00;98947.47;4916884;29;20027;-76
2023/09/10 03:52:30;;;;;;;13.10;7.68;;;;;;;15.76;100.00;98956.00;4944382;29;20031;-76
2023/09/10 03:54:55;;;;;;;15.95;7.95;;;;;;;15.75;100.00;98960.63;4936691;29;20480;-76
2023/09/10 03:57:20;;;;;;;12.00;7.47;;;;;;;15.66;100.00;98958.41;4919433;29;20035;-77
2023/09/10 03:59:46;;;;;;;14.77;7.68;;;;;;;15.59;100.00;98950.34;4934929;29;20023;-76
2023/09/10 04:02:11;;;;;;;14.77;8.00;;;;;;;15.70;100.00;98970.56;4940396;29;20023;-75
2023/09/10 04:04:37;;;;;;;18.05;8.07;;;;;;;15.65;100.00;98954.88;4920316;29;20032;-75
2023/09/10 04:07:03;;;;;;;13.07;7.18;;;;;;;15.58;100.00;98943.22;4919474;29;20035;-75
2023/09/10 04:09:29;;;;;;;11.20;7.40;;;;;;;15.73;100.00;98968.19;4916314;29;20035;-76
2023/09/10 04:11:54;;;;;;;18.23;8.68;;;;;;;15.65;100.00;98975.84;4917968;29;20024;-76
2023/09/10 04:14:20;;;;;;;13.68;8.25;;;;;;;15.69;100.00;98985.25;4943248;29;20035;-75
2023/09/10 04:16:45;;;;;;;16.73;8.20;;;;;;;15.51;100.00;98959.69;4936734;29;20035;-75
2023/09/10 04:19:10;;;;;;;14.43;9.30;;;;;;;15.48;100.00;98960.16;4936210;29;20469;-75
2023/09/10 04:21:36;;;;;;;19.05;9.05;;;;;;;15.43;100.00;98968.19;4924928;29;20599;-75
2023/09/10 04:24:01;;;;;;;15.75;9.88;;;;;;;15.51;100.00;98980.66;4919606;29;20039;-75
2023/09/10 04:26:26;;;;;;;16.23;9.18;;;;;;;15.37;100.00;98968.28;4936526;29;20027;-76
2023/09/10 04:28:52;;;;;;;14.52;8.80;;;;;;;15.32;100.00;98972.50;4933547;29;20028;-75
2023/09/10 04:31:18;;;;;;;13.40;8.18;;;;;;;15.34;100.00;98985.91;4923029;29;20034;-77
2023/09/10 04:33:43;;;;;;;9.30;7.57;;;;;;;15.42;100.00;98993.78;4919672;29;20039;-76
2023/09/10 04:36:09;;;;;;;12.77;7.75;;;;;;;15.42;100.00;98988.31;4936413;29;20020;-76
2023/09/10 04:38:34;;;;;;;13.23;9.10;;;;;;;15.48;100.00;99002.94;4930496;29;20043;-76
2023/09/10 04:41:00;;;;;;;14.75;8.68;;;;;;;15.29;100.00;98981.16;4915495;29;20032;-75
2023/09/10 04:43:25;;;;;;;15.50;10.25;;;;;;;15.26;100.00;98978.06;4918987;29;20032;-75
2023/09/10 04:45:50;;;;;;;15.40;10.50;;;;;;;15.24;100.00;98972.00;4936321;29;20114;-75
2023/09/10 04:48:17;;;;;;;16.60;10.38;;;;;;;15.32;100.00;98993.50;4916471;29;20071;-75
2023/09/10 04:50:43;;;;;;;16.63;10.43;;;;;;;15.33;100.00;98984.28;4935711;29;20055;-76
2023/09/10 04:53:09;;;;;;;14.90;10.20;;;;;;;15.39;100.00;98991.53;4920179;29;20055;-76
2023/09/10 04:55:35;;;;;;;19.60;10.35;;;;;;;15.45;100.00;98993.31;4919456;29;20034;-75
2023/09/10 04:58:00;;;;;;;16.33;10.88;;;;;;;15.36;100.00;98986.53;4935160;29;20027;-76
2023/09/10 05:00:26;;;;;;;15.98;10.02;;;;;;;15.31;100.00;98980.94;4922523;29;20595;-75
2023/09/10 05:02:51;;;;;;;18.98;10.52;;;;;;;15.46;100.00;99000.44;4937924;29;21699;-75
2023/09/10 05:05:16;;;;;;;16.20;9.88;;;;;;;15.50;100.00;99000.81;4951016;29;20091;-75
2023/09/10 05:07:41;;;;;;;15.60;10.60;;;;;;;15.44;100.00;98991.66;4919098;29;20517;-75
2023/09/10 05:10:09;;;;;;;18.30;9.95;;;;;;;15.60;100.00;98989.34;4934788;29;20034;-75
2023/09/10 05:12:35;;;;;;;13.75;9.63;;;;;;;15.65;100.00;98995.78;4935321;29;20107;-76
2023/09/10 05:15:00;;;;;;;19.00;9.60;;;;;;;15.72;100.00;99014.81;4935609;29;20119;-76
2023/09/10 05:17:25;;;;;;;16.48;11.18;;;;;;;15.74;100.00;99012.66;4915953;29;20027;-73
2023/09/10 05:19:51;;;;;;;19.30;10.50;;;;;;;15.74;100.00;99012.66;4925914;29;20067;-73
2023/09/10 05:22:16;;;;;;;16.58;9.63;;;;;;;15.77;100.00;99013.06;4933511;29;20484;-72
2023/09/10 05:24:41;;;;;;;19.02;10.68;;;;;;;15.91;100.00;99019.16;4935548;29;20488;-76
2023/09/10 05:27:06;;;;;;;16.88;9.60;;;;;;;15.96;100.00;99007.53;4938844;29;20099;-75
2023/09/10 05:29:32;;;;;;;15.32;8.18;;;;;;;15.94;100.00;99002.31;4936184;29;20427;-74
2023/09/10 05:31:57;;;;;;;13.48;7.53;;;;;;;15.97;100.00;98995.53;4939716;29;20110;-75
2023/09/10 05:34:22;;;;;;;15.63;7.57;;;;;;;16.14;100.00;99004.72;4937147;29;20031;-73
2023/09/10 05:36:48;;;;;;;14.02;7.43;;;;;;;16.92;100.00;98991.81;4921385;29;20102;-72
2023/09/10 05:39:14;;;;;;;11.48;7.32;;;;;;;18.15;100.00;98962.16;4934918;29;20023;-75
2023/09/10 05:41:39;;;;;;;14.98;6.53;;;;;;;19.38;100.00;98933.72;4917607;29;20028;-79
2023/09/10 05:44:05;;;;;;;13.82;6.75;;;;;;;20.16;100.00;98930.66;4941721;29;20534;-77
2023/09/10 05:46:30;;;;;;;11.05;6.20;;;;;;;21.12;100.00;98937.84;4922701;29;20028;-79
2023/09/10 05:48:55;;;;;;;15.90;5.97;;;;;;;22.21;100.00;98917.69;4938558;29;20030;-78
2023/09/10 05:51:20;;;;;;;12.13;6.22;;;;;;;22.97;100.00;98906.50;4939521;29;20395;-76
2023/09/10 05:53:46;;;;;;;8.57;5.50;;;;;;;23.71;100.00;98927.91;4921807;29;20028;-75
2023/09/10 05:56:11;;;;;;;11.43;5.45;;;;;;;24.19;100.00;98947.50;4924276;29;20035;-74
2023/09/10 05:58:36;;;;;;;14.02;5.90;;;;;;;24.51;100.00;98930.34;4935987;29;20099;-74
2023/09/10 06:01:02;;;;;;;8.88;5.63;;;;;;;25.16;100.00;98940.19;4941866;29;20028;-74
2023/09/10 06:03:27;;;;;;;12.77;5.38;;;;;;;26.00;100.00;98948.72;4935848;29;20047;-69
2023/09/10 06:05:53;;;;;;;11.38;5.72;;;;;;;26.98;100.00;98929.22;4921123;29;20024;-80
2023/09/10 06:08:18;;;;;;;8.68;4.80;;;;;;;28.47;100.00;98956.47;4923326;29;20148;-67
2023/09/10 06:10:43;;;;;;;8.82;5.30;;;;;;;29.89;88.39;98951.59;4933303;29;20078;-67
2023/09/10 06:13:09;;;;;;;7.60;5.22;;;;;;;29.56;83.30;98951.19;4934002;29;20059;-77
2023/09/10 06:15:34;;;;;;;10.65;4.78;;;;;;;29.34;84.06;98960.47;4930807;29;20437;-69
2023/09/10 06:17:59;;;;;;;8.57;4.95;;;;;;;30.37;73.38;98963.72;4932538;29;20031;-69
2023/09/10 06:20:24;;;;;;;9.77;4.80;;;;;;;31.56;67.33;98949.97;4934763;29;20055;-76
2023/09/10 06:22:50;;;;;;;9.35;4.60;;;;;;;33.03;62.20;98955.38;4915225;29;20084;-76
2023/09/10 06:25:16;;;;;;;7.72;4.47;;;;;;;33.78;57.88;98955.81;4913257;29;20512;-67
2023/09/10 06:27:41;;;;;;;7.78;4.78;;;;;;;33.60;56.71;98960.06;4928237;29;20042;-68
2023/09/10 06:30:07;;;;;;;10.13;4.65;;;;;;;33.98;55.89;98947.56;4930643;29;20047;-66
2023/09/10 06:32:32;;;;;;;6.38;4.85;;;;;;;34.60;53.76;98939.75;4933649;29;20119;-73
2023/09/10 06:34:57;;;;;;;13.47;5.00;;;;;;;34.38;53.96;98961.63;4930779;29;20036;-72
2023/09/10 06:37:23;;;;;;;9.77;4.73;;;;;;;34.73;54.35;98946.09;4937250;29;20287;-76
2023/09/10 06:39:49;;;;;;;9.48;5.40;;;;;;;35.30;52.62;98948.38;4915652;29;20801;-75
2023/09/10 06:42:14;;;;;;;10.95;5.75;;;;;;;36.79;49.18;98952.00;4940346;29;20149;-75
2023/09/10 06:44:42;;;;;;;9.50;4.65;;;;;;;35.77;50.21;98950.31;4936147;29;20023;-79
2023/09/10 06:47:08;;;;;;;12.32;5.10;;;;;;;35.64;50.67;98939.56;4937287;29;20027;-76
2023/09/10 06:49:34;;;;;;;9.85;5.10;;;;;;;35.86;50.89;98955.72;4926872;29;20035;-76
2023/09/10 06:51:59;;;;;;;7.28;4.30;;;;;;;35.99;49.11;98953.56;4947370;28;20042;-73
2023/09/10 06:54:24;;;;;;;5.75;4.70;;;;;;;35.18;51.01;98936.44;4917424;29;20395;-72
2023/09/10 06:56:50;;;;;;;7.70;4.75;;;;;;;35.65;51.23;98955.25;4942656;29;20509;-72
2023/09/10 06:59:16;;;;;;;12.57;5.10;;;;;;;35.45;51.95;98966.44;4928769;29;20038;-66
2023/09/10 07:01:41;;;;;;;9.68;4.90;;;;;;;34.87;52.51;98968.97;4930806;29;20070;-75
2023/09/10 07:04:21;;;;;;;8.52;5.30;;;;;;;34.45;54.13;98961.81;4932422;29;20023;-71
2023/09/10 07:06:50;;;;;;;10.77;5.47;;;;;;;35.27;51.83;98968.00;4911824;29;20032;-75
2023/09/10 07:09:21;;;;;;;6.88;5.20;;;;;;;35.81;51.68;98969.28;4931606;29;20051;-66
2023/09/10 07:11:56;;;;;;;7.75;4.85;;;;;;;35.14;52.47;98972.09;4932696;29;20031;-66
2023/09/10 07:14:21;;;;;;;13.07;5.03;;;;;;;36.16;51.46;98972.91;4933347;29;20027;-75
2023/09/10 07:16:48;;;;;;;7.00;5.40;;;;;;;36.21;50.53;98960.53;4931108;29;20094;-75
2023/09/10 07:19:14;;;;;;;9.13;4.93;;;;;;;36.58;50.58;98969.31;4909949;29;20032;-69
2023/09/10 07:21:39;;;;;;;7.72;4.28;;;;;;;37.65;49.38;98964.72;4929507;29;20075;-69
2023/09/10 07:24:06;;;;;;;12.38;5.10;;;;;;;36.79;49.28;98968.91;4928124;29;20035;-73
2023/09/10 07:26:38;;;;;;;8.50;4.93;;;;;;;37.17;48.71;98955.88;4930442;29;20028;-79
2023/09/10 07:29:05;;;;;;;8.00;4.72;;;;;;;36.97;49.23;98974.03;4913234;29;20034;-70
2023/09/10 07:31:30;;;;;;;8.77;4.90;;;;;;;37.65;48.51;98973.19;4933970;29;20070;-70
2023/09/10 07:33:55;;;;;;;5.90;4.72;;;;;;;37.99;46.90;98967.66;4929597;29;20024;-75
2023/09/10 07:36:21;;;;;;;8.30;4.70;;;;;;;37.90;46.92;98959.41;4928599;29;20031;-74
2023/09/10 07:38:47;;;;;;;7.13;4.43;;;;;;;38.04;47.02;98981.41;4918699;29;20218;-76
2023/09/10 07:41:12;;;;;;;6.65;4.30;;;;;;;38.44;45.17;98964.97;4910980;29;20354;-74
2023/09/10 07:43:38;;;;;;;11.00;4.17;;;;;;;38.44;44.75;98959.31;4914166;29;20171;-73
2023/09/10 07:46:03;;;;;;;11.20;3.93;;;;;;;39.69;44.43;98977.44;4933090;29;20032;-75
2023/09/10 07:48:28;;;;;;;4.93;3.92;;;;;;;38.08;44.57;98981.47;4934470;29;20020;-75
2023/09/10 07:50:54;;;;;;;8.30;4.50;;;;;;;38.62;44.16;98979.28;4928449;29;20110;-75
2023/09/10 07:53:20;;;;;;;8.68;3.63;;;;;;;38.67;44.28;98973.28;4927335;29;20024;-76
2023/09/10 07:55:45;;;;;;;9.80;5.07;;;;;;;39.09;42.42;98966.44;4911657;29;20039;-75
2023/09/10 07:58:10;;;;;;;6.60;4.22;;;;;;;39.40;42.43;98971.56;4935488;29;20454;-74
2023/09/10 08:00:36;;;;;;;7.50;4.13;;;;;;;40.65;41.02;98968.59;4929232;29;20024;-70
2023/09/10 08:03:03;;;;;;;7.03;3.78;;;;;;;40.48;40.91;98989.19;4923540;29;20294;-72
2023/09/10 08:05:30;;;;;;;7.37;4.37;;;;;;;40.26;42.00;98983.44;4929947;29;20058;-72
2023/09/10 08:07:55;;;;;;;6.72;3.85;;;;;;;39.87;41.44;98995.38;4936334;29;20056;-72
2023/09/10 08:10:20;;;;;;;8.03;4.30;;;;;;;39.64;41.96;98974.97;4928535;29;20523;-72
2023/09/10 08:12:46;;;;;;;10.13;4.22;;;;;;;40.56;40.98;98988.03;4931482;29;20027;-77
2023/09/10 08:15:11;;;;;;;7.23;4.00;;;;;;;39.85;42.12;98982.81;4931135;29;20030;-71
2023/09/10 08:17:36;;;;;;;10.10;3.67;;;;;;;40.41;42.40;98980.69;4933380;29;20499;-72
2023/09/10 08:20:03;;;;;;;6.60;4.10;;;;;;;39.57;42.52;98986.28;4936506;29;20346;-71
2023/09/10 08:22:28;;;;;;;6.57;3.72;;;;;;;42.04;39.78;98987.66;4927742;29;20283;-72
2023/09/10 08:24:55;;;;;;;10.23;4.10;;;;;;;41.36;39.89;98987.72;4930981;29;20107;-71
2023/09/10 08:27:20;;;;;;;6.57;3.58;;;;;;;42.08;39.14;98978.28;4935585;29;20322;-72
2023/09/10 08:29:45;;;;;;;8.00;3.93;;;;;;;42.44;38.26;98985.47;4928562;29;20059;-72
2023/09/10 08:32:11;;;;;;;7.90;4.07;;;;;;;42.85;37.74;98981.19;4933051;29;20283;-71
2023/09/10 08:34:36;;;;;;;9.35;4.40;;;;;;;42.06;38.21;98973.03;4928779;29;20027;-77
2023/09/10 08:37:05;;;;;;;9.98;4.47;;;;;;;41.15;39.56;98976.38;4919846;29;20419;-76
2023/09/10 08:39:31;;;;;;;10.80;4.55;;;;;;;37.36;44.29;98988.81;4917943;29;20028;-76
2023/09/10 08:42:05;;;;;;;10.32;4.43;;;;;;;38.63;43.56;98969.63;4935684;29;20035;-76
2023/09/10 08:44:32;;;;;;;6.65;4.15;;;;;;;40.49;41.21;98966.09;4919181;29;20042;-75
2023/09/10 08:47:01;;;;;;;8.27;4.07;;;;;;;42.35;39.04;98979.44;4929610;29;20084;-76
2023/09/10 08:49:30;;;;;;;8.65;4.10;;;;;;;42.92;38.21;98966.94;4940381;29;20031;-76
2023/09/10 08:51:56;;;;;;;9.13;4.40;;;;;;;42.63;38.11;98971.94;4938610;29;20048;-76
2023/09/10 08:54:21;;;;;;;9.77;3.92;;;;;;;43.58;37.47;98976.56;4936262;29;20059;-78
2023/09/10 08:56:48;;;;;;;7.40;3.72;;;;;;;42.68;37.20;98980.03;4938828;29;20051;-77
2023/09/10 08:59:14;;;;;;;6.67;4.00;;;;;;;41.66;38.38;98965.81;4939390;29;20027;-79
2023/09/10 09:01:42;;;;;;;9.32;4.60;;;;;;;42.80;37.13;98959.69;4938367;29;20050;-78
2023/09/10 09:04:08;;;;;;;9.60;4.30;;;;;;;43.57;36.97;98955.78;4937144;29;20091;-78
2023/09/10 09:06:35;;;;;;;10.05;4.93;;;;;;;42.76;36.48;98961.75;4922275;29;20487;-77
2023/09/10 09:09:05;;;;;;;7.53;4.30;;;;;;;43.20;35.31;98976.47;4919620;29;20038;-78
2023/09/10 09:11:35;;;;;;;7.95;4.00;;;;;;;43.30;37.02;98976.38;4937049;29;20444;-77
2023/09/10 09:14:00;;;;;;;9.40;4.22;;;;;;;43.37;36.67;98957.63;4936166;29;20038;-73
2023/09/10 09:16:26;;;;;;;6.50;3.97;;;;;;;41.90;38.02;98967.78;4930369;29;20035;-73
2023/09/10 09:18:51;;;;;;;12.50;4.30;;;;;;;43.17;36.73;98972.44;4907111;29;20060;-72
2023/09/10 09:21:21;;;;;;;8.93;4.53;;;;;;;43.22;36.32;98971.19;4924390;29;20040;-71
2023/09/10 09:23:51;;;;;;;7.20;4.10;;;;;;;43.81;35.50;98973.88;4933679;29;20055;-71
2023/09/10 09:26:16;;;;;;;7.80;4.03;;;;;;;44.72;34.07;98974.38;4934190;29;20137;-71
2023/09/10 09:28:41;;;;;;;5.23;3.40;;;;;;;44.48;36.27;98971.44;4934236;29;20031;-72
2023/09/10 09:31:11;;;;;;;5.82;3.83;;;;;;;45.04;34.86;98979.59;4931345;29;20082;-71
2023/09/10 09:33:39;;;;;;;8.30;3.65;;;;;;;44.75;36.37;98970.66;4932807;28;20575;-71
2023/09/10 09:36:06;;;;;;;5.93;3.60;;;;;;;45.21;34.72;98972.00;4929401;29;20047;-72
2023/09/10 09:38:31;;;;;;;5.27;3.73;;;;;;;45.24;35.16;98968.28;4935170;29;20587;-72
2023/09/10 09:40:56;;;;;;;7.20;3.70;;;;;;;44.11;35.68;98952.38;4933987;29;20056;-72
2023/09/10 09:43:21;;;;;;;6.67;3.60;;;;;;;45.92;34.35;98965.00;4935662;29;20392;-71
2023/09/10 09:45:47;;;;;;;6.50;3.23;;;;;;;45.22;35.40;98947.91;4930716;29;20028;-72
2023/09/10 09:48:13;;;;;;;6.57;4.05;;;;;;;45.97;34.04;98955.13;4931605;29;20035;-71
2023/09/10 09:50:38;;;;;;;7.43;3.63;;;;;;;46.63;33.75;98953.28;4932462;29;20059;-71
2023/09/10 09:53:03;;;;;;;9.25;3.17;;;;;;;45.86;34.67;98946.72;4916384;29;20035;-72
2023/09/10 09:55:29;;;;;;;5.50;3.43;;;;;;;45.87;33.36;98938.94;4934635;29;20484;-72
2023/09/10 09:57:54;;;;;;;7.43;4.07;;;;;;;45.41;33.48;98935.75;4935147;29;20347;-72
2023/09/10 10:00:20;;;;;;;6.30;3.33;;;;;;;46.66;32.24;98938.06;4928130;29;20075;-72
2023/09/10 10:02:46;;;;;;;7.77;3.17;;;;;;;46.54;31.76;98936.72;4936967;29;20054;-72
2023/09/10 10:05:11;;;;;;;5.82;3.40;;;;;;;47.22;31.05;98925.69;4934401;29;20033;-73
2023/09/10 10:07:37;;;;;;;7.90;3.22;;;;;;;47.38;30.43;98936.31;4916087;29;20074;-71
2023/09/10 10:10:14;;;;;;;7.18;3.17;;;;;;;47.56;29.90;98922.34;4932326;29;20079;-71
2023/09/10 10:12:40;;;;;;;;;;;;;;;45.18;32.08;98925.13;4938736;29;20027;-71
2023/09/10 10:15:08;;;;;;;7.22;3.30;;;;;;;46.00;31.08;98921.97;4933429;29;19970;-72
2023/09/10 10:17:33;;;;;;;5.88;2.95;;;;;;;47.77;30.07;98920.91;4934521;29;20401;-71
2023/09/10 10:20:01;;;;;;;5.10;3.10;;;;;;;46.55;30.82;98917.50;4932104;29;20090;-71
2023/09/10 10:22:26;;;;;;;6.60;3.45;;;;;;;46.60;31.68;98914.09;4931481;29;20044;-71
2023/09/10 10:24:52;;;;;;;7.55;3.10;;;;;;;47.11;30.86;98907.97;4928773;29;20100;-71
2023/09/10 10:27:18;;;;;;;3.88;2.97;;;;;;;46.88;29.68;98903.22;4931168;29;20031;-71
2023/09/10 10:29:44;;;;;;;4.07;2.83;;;;;;;47.24;30.52;98913.78;4930258;29;20107;-71
2023/09/10 10:32:27;;;;;;;4.40;3.13;;;;;;;47.57;29.82;98906.72;4931035;29;20036;-71
2023/09/10 10:34:59;;;;;;;4.95;3.00;;;;;;;47.89;30.66;98902.16;4932893;29;20039;-73
2023/09/10 10:37:45;;;;;;;4.50;2.90;;;;;;;48.43;30.61;98903.41;4926779;29;20443;-72
2023/09/10 10:40:18;;;;;;;4.90;3.30;;;;;;;46.91;30.33;98891.69;4917622;29;20040;-72
2023/09/10 10:43:00;;;;;;;7.72;3.65;;;;;;;45.83;31.12;98899.00;4934690;29;20383;-72
2023/09/10 10:45:26;;;;;;;5.47;2.83;;;;;;;46.53;31.11;98897.09;4931779;29;20035;-73
2023/09/10 10:47:52;;;;;;;4.93;3.15;;;;;;;48.20;30.30;98882.38;4931255;29;20110;-73
2023/09/10 10:50:30;;;;;;;4.78;3.17;;;;;;;47.81;30.83;98897.91;4931755;29;20387;-73
2023/09/10 10:53:14;;;;;;;6.72;3.38;;;;;;;46.75;30.44;98889.63;4929991;29;20024;-73
2023/09/10 10:55:41;;;;;;;6.15;3.35;;;;;;;46.72;32.00;98886.88;4928003;29;20078;-73
2023/09/10 10:58:07;;;;;;;4.20;3.03;;;;;;;47.24;30.66;98874.44;4928803;29;20039;-73
2023/09/10 11:00:32;;;;;;;4.40;2.60;;;;;;;48.78;29.53;98880.56;4910949;29;20028;-73
2023/09/10 11:03:09;;;;;;;5.45;2.85;;;;;;;48.88;29.61;98874.44;4927262;29;20487;-73
2023/09/10 11:06:11;;;;;;;5.70;3.28;;;;;;;48.21;30.44;98881.16;4926106;29;20028;-74
2023/09/10 11:08:37;;;;;;;5.85;3.08;;;;;;;48.48;29.05;98868.41;4932486;29;20506;-73
2023/09/10 11:11:05;;;;;;;4.78;3.25;;;;;;;48.50;28.99;98872.41;4929212;29;20087;-74
2023/09/10 11:13:32;;;;;;;8.70;3.03;;;;;;;49.38;28.56;98869.06;4932734;29;20381;-74
2023/09/10 11:16:03;;;;;;;4.10;2.60;;;;;;;49.07;29.00;98871.78;4927445;29;20034;-74
2023/09/10 11:18:34;;;;;;;5.10;2.80;;;;;;;49.93;27.35;98874.41;4930131;29;20685;-74
2023/09/10 11:21:00;;;;;;;5.40;2.92;;;;;;;46.61;28.54;98881.34;4933930;29;20111;-74
2023/09/10 11:23:25;;;;;;;6.22;3.30;;;;;;;47.99;28.85;98868.69;4934695;29;20132;-74